sensor_id;sensor_type;location;lat;lon;timestamp;pressure;altitude;pressure_sealevel;temperature;humidity
56070;BME280;41944;52.078;-0.058;2023-07-13T00:01:13;101112.52;;;18.22;77.44
56070;BME280;41944;52.078;-0.058;2023-07-13T00:03:41;101111.91;;;18.12;77.52
56070;BME280;41944;52.078;-0.058;2023-07-13T00:06:09;101116.93;;;18.13;78.11
56070;BME280;41944;52.078;-0.058;2023-07-13T00:08:36;101109.99;;;18.18;77.67
56070;BME280;41944;52.078;-0.058;2023-07-13T00:11:03;101110.85;;;18.35;76.89
56070;BME280;41944;52.078;-0.058;2023-07-13T00:13:31;101110.40;;;18.19;77.31
56070;BME280;41944;52.078;-0.058;2023-07-13T00:15:59;101115.07;;;18.06;77.91
56070;BME280;41944;52.078;-0.058;2023-07-13T00:18:25;101119.31;;;18.06;77.43
56070;BME280;41944;52.078;-0.058;2023-07-13T00:20:52;101113.34;;;17.86;78.26
56070;BME280;41944;52.078;-0.058;2023-07-13T00:23:19;101119.23;;;18.02;77.66
56070;BME280;41944;52.078;-0.058;2023-07-13T00:25:46;101116.01;;;17.87;78.09
56070;BME280;41944;52.078;-0.058;2023-07-13T00:28:13;101117.01;;;17.75;78.86
56070;BME280;41944;52.078;-0.058;2023-07-13T00:30:40;101116.81;;;17.67;79.15
56070;BME280;41944;52.078;-0.058;2023-07-13T00:33:07;101115.91;;;17.39;80.82
56070;BME280;41944;52.078;-0.058;2023-07-13T00:35:34;101114.72;;;17.34;80.82
56070;BME280;41944;52.078;-0.058;2023-07-13T00:38:00;101114.27;;;17.27;81.47
56070;BME280;41944;52.078;-0.058;2023-07-13T00:40:27;101111.71;;;17.38;80.74
56070;BME280;41944;52.078;-0.058;2023-07-13T00:42:57;101110.60;;;17.09;82.63
56070;BME280;41944;52.078;-0.058;2023-07-13T00:46:32;101110.32;;;17.19;81.81
56070;BME280;41944;52.078;-0.058;2023-07-13T00:49:01;101113.45;;;17.20;81.54
56070;BME280;41944;52.078;-0.058;2023-07-13T00:51:34;101111.55;;;17.09;82.13
56070;BME280;41944;52.078;-0.058;2023-07-13T00:54:05;101111.95;;;16.92;82.95
56070;BME280;41944;52.078;-0.058;2023-07-13T00:56:34;101110.65;;;16.92;83.10
56070;BME280;41944;52.078;-0.058;2023-07-13T00:59:03;101112.62;;;16.88;83.31
56070;BME280;41944;52.078;-0.058;2023-07-13T01:01:32;101112.13;;;16.59;85.20
56070;BME280;41944;52.078;-0.058;2023-07-13T01:04:00;101110.65;;;16.75;84.44
56070;BME280;41944;52.078;-0.058;2023-07-13T01:06:27;101111.97;;;16.67;84.79
56070;BME280;41944;52.078;-0.058;2023-07-13T01:08:55;101114.14;;;16.32;86.76
56070;BME280;41944;52.078;-0.058;2023-07-13T01:11:23;101109.69;;;16.29;87.16
56070;BME280;41944;52.078;-0.058;2023-07-13T01:13:49;101112.03;;;16.36;87.06
56070;BME280;41944;52.078;-0.058;2023-07-13T01:16:22;101115.13;;;16.05;88.41
56070;BME280;41944;52.078;-0.058;2023-07-13T01:18:51;101106.50;;;16.23;87.38
56070;BME280;41944;52.078;-0.058;2023-07-13T01:21:19;101108.01;;;16.14;87.67
56070;BME280;41944;52.078;-0.058;2023-07-13T01:23:46;101109.07;;;16.10;88.10
56070;BME280;41944;52.078;-0.058;2023-07-13T01:26:13;101109.65;;;16.10;87.73
56070;BME280;41944;52.078;-0.058;2023-07-13T01:28:39;101111.65;;;15.95;88.78
56070;BME280;41944;52.078;-0.058;2023-07-13T01:31:06;101113.64;;;15.94;88.86
56070;BME280;41944;52.078;-0.058;2023-07-13T01:33:34;101112.62;;;15.84;89.33
56070;BME280;41944;52.078;-0.058;2023-07-13T01:36:01;101114.25;;;15.84;89.50
56070;BME280;41944;52.078;-0.058;2023-07-13T01:38:28;101116.19;;;15.64;90.61
56070;BME280;41944;52.078;-0.058;2023-07-13T01:40:54;101114.69;;;15.83;89.61
56070;BME280;41944;52.078;-0.058;2023-07-13T01:43:21;101112.77;;;15.68;90.96
56070;BME280;41944;52.078;-0.058;2023-07-13T01:45:48;101113.62;;;15.75;90.52
56070;BME280;41944;52.078;-0.058;2023-07-13T01:48:15;101112.15;;;15.62;91.09
56070;BME280;41944;52.078;-0.058;2023-07-13T01:50:42;101110.02;;;15.52;91.48
56070;BME280;41944;52.078;-0.058;2023-07-13T01:53:09;101105.69;;;15.58;92.01
56070;BME280;41944;52.078;-0.058;2023-07-13T01:55:37;101106.02;;;15.43;92.87
56070;BME280;41944;52.078;-0.058;2023-07-13T01:58:04;101105.98;;;15.38;93.28
56070;BME280;41944;52.078;-0.058;2023-07-13T02:00:32;101104.95;;;15.38;93.16
56070;BME280;41944;52.078;-0.058;2023-07-13T02:03:00;101101.31;;;15.35;93.02
56070;BME280;41944;52.078;-0.058;2023-07-13T02:05:26;101104.59;;;15.30;94.00
56070;BME280;41944;52.078;-0.058;2023-07-13T02:07:53;101105.58;;;15.35;93.38
56070;BME280;41944;52.078;-0.058;2023-07-13T02:10:20;101103.38;;;15.30;93.85
56070;BME280;41944;52.078;-0.058;2023-07-13T02:12:48;101103.95;;;15.18;94.84
56070;BME280;41944;52.078;-0.058;2023-07-13T02:15:16;101099.00;;;15.10;95.44
56070;BME280;41944;52.078;-0.058;2023-07-13T02:17:43;101098.83;;;15.20;95.50
56070;BME280;41944;52.078;-0.058;2023-07-13T02:20:11;101100.08;;;15.13;95.72
56070;BME280;41944;52.078;-0.058;2023-07-13T02:22:38;101104.91;;;15.14;95.70
56070;BME280;41944;52.078;-0.058;2023-07-13T02:25:05;101105.16;;;15.01;96.70
56070;BME280;41944;52.078;-0.058;2023-07-13T02:27:33;101101.76;;;15.02;96.42
56070;BME280;41944;52.078;-0.058;2023-07-13T02:30:00;101100.77;;;15.00;97.15
56070;BME280;41944;52.078;-0.058;2023-07-13T02:32:27;101098.64;;;15.05;97.13
56070;BME280;41944;52.078;-0.058;2023-07-13T02:34:54;101098.76;;;15.15;96.17
56070;BME280;41944;52.078;-0.058;2023-07-13T02:37:21;101097.88;;;15.12;96.48
56070;BME280;41944;52.078;-0.058;2023-07-13T02:39:48;101098.87;;;15.06;96.80
56070;BME280;41944;52.078;-0.058;2023-07-13T02:42:15;101100.70;;;15.13;96.89
56070;BME280;41944;52.078;-0.058;2023-07-13T02:44:42;101098.73;;;15.07;96.82
56070;BME280;41944;52.078;-0.058;2023-07-13T02:47:09;101097.87;;;14.92;98.10
56070;BME280;41944;52.078;-0.058;2023-07-13T02:49:35;101096.46;;;15.12;97.40
56070;BME280;41944;52.078;-0.058;2023-07-13T02:52:04;101098.14;;;15.05;97.33
56070;BME280;41944;52.078;-0.058;2023-07-13T02:54:31;101097.93;;;15.02;97.48
56070;BME280;41944;52.078;-0.058;2023-07-13T02:56:58;101101.12;;;15.02;97.64
56070;BME280;41944;52.078;-0.058;2023-07-13T02:59:25;101094.75;;;14.90;98.08
56070;BME280;41944;52.078;-0.058;2023-07-13T03:01:52;101099.48;;;14.96;97.60
56070;BME280;41944;52.078;-0.058;2023-07-13T03:04:20;101098.49;;;14.87;98.34
56070;BME280;41944;52.078;-0.058;2023-07-13T03:06:47;101098.16;;;14.97;98.19
56070;BME280;41944;52.078;-0.058;2023-07-13T03:09:14;101097.31;;;14.88;98.39
56070;BME280;41944;52.078;-0.058;2023-07-13T03:11:40;101094.88;;;14.85;98.78
56070;BME280;41944;52.078;-0.058;2023-07-13T03:14:08;101099.52;;;14.88;98.80
56070;BME280;41944;52.078;-0.058;2023-07-13T03:16:35;101098.74;;;14.75;99.65
56070;BME280;41944;52.078;-0.058;2023-07-13T03:19:03;101097.93;;;14.75;100.00
56070;BME280;41944;52.078;-0.058;2023-07-13T03:21:30;101100.03;;;14.80;99.87
56070;BME280;41944;52.078;-0.058;2023-07-13T03:23:57;101102.94;;;14.88;100.00
56070;BME280;41944;52.078;-0.058;2023-07-13T03:26:24;101104.64;;;14.88;99.65
56070;BME280;41944;52.078;-0.058;2023-07-13T03:28:51;101104.81;;;14.93;99.78
56070;BME280;41944;52.078;-0.058;2023-07-13T03:31:20;101100.71;;;14.74;100.00
56070;BME280;41944;52.078;-0.058;2023-07-13T03:33:48;101101.33;;;14.75;100.00
56070;BME280;41944;52.078;-0.058;2023-07-13T03:36:18;101106.57;;;14.85;100.00
56070;BME280;41944;52.078;-0.058;2023-07-13T03:38:46;101105.59;;;14.84;100.00
56070;BME280;41944;52.078;-0.058;2023-07-13T03:41:14;101105.86;;;14.77;100.00
56070;BME280;41944;52.078;-0.058;2023-07-13T03:43:41;101109.32;;;14.83;100.00
56070;BME280;41944;52.078;-0.058;2023-07-13T03:46:08;101113.27;;;14.96;100.00
56070;BME280;41944;52.078;-0.058;2023-07-13T03:48:36;101112.62;;;14.84;100.00
56070;BME280;41944;52.078;-0.058;2023-07-13T03:51:03;101116.11;;;14.83;100.00
56070;BME280;41944;52.078;-0.058;2023-07-13T03:53:30;101119.64;;;14.87;100.00
56070;BME280;41944;52.078;-0.058;2023-07-13T03:55:57;101118.57;;;14.90;100.00
56070;BME280;41944;52.078;-0.058;2023-07-13T03:58:27;101121.08;;;14.90;100.00
56070;BME280;41944;52.078;-0.058;2023-07-13T04:00:55;101116.31;;;14.96;100.00
56070;BME280;41944;52.078;-0.058;2023-07-13T04:03:22;101118.85;;;14.94;100.00
56070;BME280;41944;52.078;-0.058;2023-07-13T04:05:50;101120.88;;;15.16;100.00
56070;BME280;41944;52.078;-0.058;2023-07-13T04:08:17;101123.99;;;15.24;100.00
56070;BME280;41944;52.078;-0.058;2023-07-13T04:10:44;101127.33;;;15.33;100.00
56070;BME280;41944;52.078;-0.058;2023-07-13T04:13:12;101129.95;;;15.47;100.00
56070;BME280;41944;52.078;-0.058;2023-07-13T04:15:39;101131.77;;;15.51;100.00
56070;BME280;41944;52.078;-0.058;2023-07-13T04:18:05;101133.47;;;15.56;100.00
56070;BME280;41944;52.078;-0.058;2023-07-13T04:20:33;101130.98;;;15.71;100.00
56070;BME280;41944;52.078;-0.058;2023-07-13T04:23:00;101132.61;;;15.73;99.73
56070;BME280;41944;52.078;-0.058;2023-07-13T04:25:27;101133.72;;;15.86;99.28
56070;BME280;41944;52.078;-0.058;2023-07-13T04:27:54;101134.74;;;15.82;99.14
56070;BME280;41944;52.078;-0.058;2023-07-13T04:30:22;101133.47;;;15.94;98.46
56070;BME280;41944;52.078;-0.058;2023-07-13T04:32:50;101132.28;;;15.96;98.87
56070;BME280;41944;52.078;-0.058;2023-07-13T04:35:18;101134.35;;;16.14;97.50
56070;BME280;41944;52.078;-0.058;2023-07-13T04:37:45;101136.18;;;16.31;96.14
56070;BME280;41944;52.078;-0.058;2023-07-13T04:40:12;101138.46;;;16.40;95.02
56070;BME280;41944;52.078;-0.058;2023-07-13T04:42:39;101138.32;;;16.44;94.60
56070;BME280;41944;52.078;-0.058;2023-07-13T04:45:07;101138.95;;;16.51;94.14
56070;BME280;41944;52.078;-0.058;2023-07-13T04:47:35;101138.89;;;16.51;94.28
56070;BME280;41944;52.078;-0.058;2023-07-13T04:50:03;101144.84;;;16.61;93.70
56070;BME280;41944;52.078;-0.058;2023-07-13T04:52:30;101142.92;;;16.49;94.42
56070;BME280;41944;52.078;-0.058;2023-07-13T04:54:57;101146.14;;;16.52;94.58
56070;BME280;41944;52.078;-0.058;2023-07-13T04:57:24;101148.23;;;16.54;94.15
56070;BME280;41944;52.078;-0.058;2023-07-13T04:59:51;101146.58;;;16.63;94.09
56070;BME280;41944;52.078;-0.058;2023-07-13T05:02:20;101151.90;;;16.67;94.09
56070;BME280;41944;52.078;-0.058;2023-07-13T05:04:47;101156.85;;;16.59;94.37
56070;BME280;41944;52.078;-0.058;2023-07-13T05:07:14;101157.20;;;16.70;94.21
56070;BME280;41944;52.078;-0.058;2023-07-13T05:09:42;101162.78;;;16.79;93.00
56070;BME280;41944;52.078;-0.058;2023-07-13T05:12:09;101164.46;;;16.71;93.14
56070;BME280;41944;52.078;-0.058;2023-07-13T05:14:37;101167.69;;;16.78;92.93
56070;BME280;41944;52.078;-0.058;2023-07-13T05:17:04;101168.30;;;16.79;93.37
56070;BME280;41944;52.078;-0.058;2023-07-13T05:19:32;101167.40;;;16.77;93.77
56070;BME280;41944;52.078;-0.058;2023-07-13T05:21:59;101170.35;;;16.71;94.22
56070;BME280;41944;52.078;-0.058;2023-07-13T05:24:26;101170.40;;;16.83;93.47
56070;BME280;41944;52.078;-0.058;2023-07-13T05:26:53;101171.23;;;17.03;91.75
56070;BME280;41944;52.078;-0.058;2023-07-13T05:29:20;101172.95;;;16.96;91.97
56070;BME280;41944;52.078;-0.058;2023-07-13T05:31:48;101181.55;;;16.93;91.69
56070;BME280;41944;52.078;-0.058;2023-07-13T05:34:15;101188.06;;;16.90;91.83
56070;BME280;41944;52.078;-0.058;2023-07-13T05:36:43;101188.07;;;17.03;90.96
56070;BME280;41944;52.078;-0.058;2023-07-13T05:39:10;101188.73;;;16.99;91.16
56070;BME280;41944;52.078;-0.058;2023-07-13T05:41:37;101192.58;;;16.96;91.88
56070;BME280;41944;52.078;-0.058;2023-07-13T05:44:03;101194.54;;;17.03;92.18
56070;BME280;41944;52.078;-0.058;2023-07-13T05:46:31;101192.08;;;17.08;92.10
56070;BME280;41944;52.078;-0.058;2023-07-13T05:48:58;101196.69;;;17.36;90.89
56070;BME280;41944;52.078;-0.058;2023-07-13T05:51:25;101197.28;;;17.34;92.19
56070;BME280;41944;52.078;-0.058;2023-07-13T05:53:52;101202.51;;;17.62;91.34
56070;BME280;41944;52.078;-0.058;2023-07-13T05:56:19;101208.71;;;17.92;88.08
56070;BME280;41944;52.078;-0.058;2023-07-13T05:58:47;101217.72;;;18.17;86.28
56070;BME280;41944;52.078;-0.058;2023-07-13T06:01:15;101218.69;;;18.37;84.69
56070;BME280;41944;52.078;-0.058;2023-07-13T06:03:42;101221.64;;;18.56;83.34
56070;BME280;41944;52.078;-0.058;2023-07-13T06:06:10;101224.40;;;18.77;80.54
56070;BME280;41944;52.078;-0.058;2023-07-13T06:08:38;101222.31;;;18.73;80.86
56070;BME280;41944;52.078;-0.058;2023-07-13T06:11:07;101228.73;;;18.67;80.90
56070;BME280;41944;52.078;-0.058;2023-07-13T06:13:34;101233.70;;;18.82;80.25
56070;BME280;41944;52.078;-0.058;2023-07-13T06:16:02;101233.86;;;18.83;79.94
56070;BME280;41944;52.078;-0.058;2023-07-13T06:18:30;101240.69;;;18.67;82.17
56070;BME280;41944;52.078;-0.058;2023-07-13T06:20:57;101239.60;;;18.75;81.53
56070;BME280;41944;52.078;-0.058;2023-07-13T06:23:24;101240.73;;;18.77;80.70
56070;BME280;41944;52.078;-0.058;2023-07-13T06:25:52;101242.38;;;18.68;81.47
56070;BME280;41944;52.078;-0.058;2023-07-13T06:28:19;101244.57;;;18.69;82.18
56070;BME280;41944;52.078;-0.058;2023-07-13T06:30:46;101240.75;;;18.89;81.43
56070;BME280;41944;52.078;-0.058;2023-07-13T06:33:13;101242.66;;;18.84;82.01
56070;BME280;41944;52.078;-0.058;2023-07-13T06:35:40;101241.17;;;18.94;80.94
56070;BME280;41944;52.078;-0.058;2023-07-13T06:38:06;101243.22;;;19.02;80.18
56070;BME280;41944;52.078;-0.058;2023-07-13T06:40:34;101244.83;;;19.23;79.14
56070;BME280;41944;52.078;-0.058;2023-07-13T06:43:01;101246.17;;;19.28;78.19
56070;BME280;41944;52.078;-0.058;2023-07-13T06:45:28;101243.82;;;19.40;77.64
56070;BME280;41944;52.078;-0.058;2023-07-13T06:47:55;101245.28;;;19.48;77.45
56070;BME280;41944;52.078;-0.058;2023-07-13T06:50:22;101246.58;;;19.50;77.07
56070;BME280;41944;52.078;-0.058;2023-07-13T06:52:49;101239.34;;;19.59;76.68
56070;BME280;41944;52.078;-0.058;2023-07-13T06:55:15;101247.30;;;19.54;77.02
56070;BME280;41944;52.078;-0.058;2023-07-13T06:57:43;101244.25;;;19.68;77.51
56070;BME280;41944;52.078;-0.058;2023-07-13T07:00:11;101250.47;;;19.69;77.33
56070;BME280;41944;52.078;-0.058;2023-07-13T07:02:38;101256.16;;;19.82;75.69
56070;BME280;41944;52.078;-0.058;2023-07-13T07:05:05;101256.12;;;19.81;75.70
56070;BME280;41944;52.078;-0.058;2023-07-13T07:07:33;101258.41;;;19.99;75.21
56070;BME280;41944;52.078;-0.058;2023-07-13T07:10:00;101256.52;;;19.96;75.03
56070;BME280;41944;52.078;-0.058;2023-07-13T07:12:27;101256.19;;;19.93;75.50
56070;BME280;41944;52.078;-0.058;2023-07-13T07:14:54;101256.06;;;20.00;75.00
56070;BME280;41944;52.078;-0.058;2023-07-13T07:17:21;101255.01;;;20.08;74.75
56070;BME280;41944;52.078;-0.058;2023-07-13T07:19:47;101256.23;;;20.15;74.19
56070;BME280;41944;52.078;-0.058;2023-07-13T07:22:14;101255.35;;;20.04;74.72
56070;BME280;41944;52.078;-0.058;2023-07-13T07:24:41;101264.03;;;20.04;75.31
56070;BME280;41944;52.078;-0.058;2023-07-13T07:27:08;101264.62;;;20.09;74.98
56070;BME280;41944;52.078;-0.058;2023-07-13T07:29:35;101263.50;;;20.14;75.61
56070;BME280;41944;52.078;-0.058;2023-07-13T07:32:02;101263.98;;;20.18;75.66
56070;BME280;41944;52.078;-0.058;2023-07-13T07:34:30;101266.08;;;20.18;75.01
56070;BME280;41944;52.078;-0.058;2023-07-13T07:37:00;101271.23;;;20.35;74.02
56070;BME280;41944;52.078;-0.058;2023-07-13T07:39:28;101273.45;;;20.50;72.90
56070;BME280;41944;52.078;-0.058;2023-07-13T07:41:55;101274.92;;;20.67;72.57
56070;BME280;41944;52.078;-0.058;2023-07-13T07:44:22;101272.44;;;20.81;71.58
56070;BME280;41944;52.078;-0.058;2023-07-13T07:46:49;101279.07;;;20.92;72.42
56070;BME280;41944;52.078;-0.058;2023-07-13T07:49:16;101274.76;;;20.92;70.48
56070;BME280;41944;52.078;-0.058;2023-07-13T07:51:43;101277.84;;;21.06;69.76
56070;BME280;41944;52.078;-0.058;2023-07-13T07:54:10;101281.31;;;21.00;69.42
56070;BME280;41944;52.078;-0.058;2023-07-13T07:56:38;101281.64;;;21.01;69.52
56070;BME280;41944;52.078;-0.058;2023-07-13T07:59:05;101281.21;;;20.98;68.57
56070;BME280;41944;52.078;-0.058;2023-07-13T08:01:33;101283.85;;;20.93;68.70
56070;BME280;41944;52.078;-0.058;2023-07-13T08:04:00;101284.92;;;20.99;68.65
56070;BME280;41944;52.078;-0.058;2023-07-13T08:06:27;101287.24;;;21.09;68.67
56070;BME280;41944;52.078;-0.058;2023-07-13T08:08:55;101284.25;;;21.10;68.31
56070;BME280;41944;52.078;-0.058;2023-07-13T08:11:22;101287.27;;;21.11;68.24
56070;BME280;41944;52.078;-0.058;2023-07-13T08:13:49;101284.56;;;21.28;67.98
56070;BME280;41944;52.078;-0.058;2023-07-13T08:16:16;101284.78;;;21.45;67.42
56070;BME280;41944;52.078;-0.058;2023-07-13T08:18:44;101285.54;;;21.48;67.18
56070;BME280;41944;52.078;-0.058;2023-07-13T08:21:11;101289.59;;;21.58;66.37
56070;BME280;41944;52.078;-0.058;2023-07-13T08:23:38;101288.15;;;21.66;65.84
56070;BME280;41944;52.078;-0.058;2023-07-13T08:26:06;101284.45;;;21.53;66.06
56070;BME280;41944;52.078;-0.058;2023-07-13T08:28:33;101284.33;;;21.51;66.37
56070;BME280;41944;52.078;-0.058;2023-07-13T08:31:01;101289.01;;;21.76;64.78
56070;BME280;41944;52.078;-0.058;2023-07-13T08:33:30;101289.82;;;21.79;65.02
56070;BME280;41944;52.078;-0.058;2023-07-13T08:35:57;101290.89;;;21.73;65.50
56070;BME280;41944;52.078;-0.058;2023-07-13T08:38:24;101293.27;;;21.82;65.60
56070;BME280;41944;52.078;-0.058;2023-07-13T08:40:53;101294.19;;;21.94;65.86
56070;BME280;41944;52.078;-0.058;2023-07-13T08:43:25;101290.05;;;22.13;64.90
56070;BME280;41944;52.078;-0.058;2023-07-13T08:45:56;101291.56;;;22.23;64.99
56070;BME280;41944;52.078;-0.058;2023-07-13T08:48:27;101294.45;;;22.42;64.44
56070;BME280;41944;52.078;-0.058;2023-07-13T08:50:57;101298.93;;;22.47;63.17
56070;BME280;41944;52.078;-0.058;2023-07-13T08:53:32;101296.53;;;22.39;63.14
56070;BME280;41944;52.078;-0.058;2023-07-13T08:56:02;101298.83;;;22.39;63.14
56070;BME280;41944;52.078;-0.058;2023-07-13T08:58:30;101300.39;;;22.50;62.96
56070;BME280;41944;52.078;-0.058;2023-07-13T09:01:02;101299.38;;;22.53;63.11
56070;BME280;41944;52.078;-0.058;2023-07-13T09:03:40;101298.29;;;22.48;62.49
56070;BME280;41944;52.078;-0.058;2023-07-13T09:06:12;101297.50;;;22.42;63.64
56070;BME280;41944;52.078;-0.058;2023-07-13T09:08:47;101295.19;;;22.41;64.76
56070;BME280;41944;52.078;-0.058;2023-07-13T09:11:27;101298.10;;;22.47;63.31
56070;BME280;41944;52.078;-0.058;2023-07-13T09:14:01;101298.00;;;22.35;63.84
56070;BME280;41944;52.078;-0.058;2023-07-13T09:16:34;101296.25;;;22.25;64.47
56070;BME280;41944;52.078;-0.058;2023-07-13T09:19:05;101296.06;;;22.28;64.84
56070;BME280;41944;52.078;-0.058;2023-07-13T09:21:37;101294.40;;;22.34;64.85
56070;BME280;41944;52.078;-0.058;2023-07-13T09:24:28;101295.50;;;22.28;64.70
56070;BME280;41944;52.078;-0.058;2023-07-13T09:26:56;101299.05;;;22.56;63.12
56070;BME280;41944;52.078;-0.058;2023-07-13T09:29:28;101304.34;;;22.63;63.26
56070;BME280;41944;52.078;-0.058;2023-07-13T09:31:58;101297.55;;;22.64;63.14
56070;BME280;41944;52.078;-0.058;2023-07-13T09:34:28;101296.51;;;22.82;62.21
56070;BME280;41944;52.078;-0.058;2023-07-13T09:36:56;101299.16;;;22.87;60.75
56070;BME280;41944;52.078;-0.058;2023-07-13T09:39:26;101302.54;;;22.99;61.38
56070;BME280;41944;52.078;-0.058;2023-07-13T09:41:59;101300.18;;;23.06;60.19
56070;BME280;41944;52.078;-0.058;2023-07-13T09:44:30;101296.51;;;23.21;60.27
56070;BME280;41944;52.078;-0.058;2023-07-13T09:46:58;101297.43;;;23.20;58.91
56070;BME280;41944;52.078;-0.058;2023-07-13T09:49:27;101306.84;;;23.35;58.13
56070;BME280;41944;52.078;-0.058;2023-07-13T09:51:59;101304.77;;;23.42;57.39
56070;BME280;41944;52.078;-0.058;2023-07-13T09:54:27;101308.34;;;23.39;57.32
56070;BME280;41944;52.078;-0.058;2023-07-13T09:56:55;101313.35;;;23.53;56.89
56070;BME280;41944;52.078;-0.058;2023-07-13T09:59:24;101307.53;;;23.64;55.87
56070;BME280;41944;52.078;-0.058;2023-07-13T10:01:51;101310.98;;;23.52;55.84
56070;BME280;41944;52.078;-0.058;2023-07-13T10:04:19;101312.20;;;23.52;57.62
56070;BME280;41944;52.078;-0.058;2023-07-13T10:06:47;101306.23;;;23.55;57.31
56070;BME280;41944;52.078;-0.058;2023-07-13T10:09:16;101312.91;;;23.75;58.13
56070;BME280;41944;52.078;-0.058;2023-07-13T10:11:43;101305.25;;;23.89;57.29
56070;BME280;41944;52.078;-0.058;2023-07-13T10:14:13;101302.31;;;23.99;57.21
56070;BME280;41944;52.078;-0.058;2023-07-13T10:16:42;101302.88;;;23.97;53.98
56070;BME280;41944;52.078;-0.058;2023-07-13T10:19:13;101303.08;;;24.09;53.90
56070;BME280;41944;52.078;-0.058;2023-07-13T10:21:47;101302.18;;;24.16;55.72
56070;BME280;41944;52.078;-0.058;2023-07-13T10:24:21;101297.51;;;24.21;55.18
56070;BME280;41944;52.078;-0.058;2023-07-13T10:26:52;101300.52;;;24.40;54.03
56070;BME280;41944;52.078;-0.058;2023-07-13T10:29:24;101298.03;;;24.28;52.49
56070;BME280;41944;52.078;-0.058;2023-07-13T10:31:53;101300.71;;;24.43;50.29
56070;BME280;41944;52.078;-0.058;2023-07-13T10:34:20;101300.40;;;24.42;51.91
56070;BME280;41944;52.078;-0.058;2023-07-13T10:36:48;101303.31;;;24.62;51.97
56070;BME280;41944;52.078;-0.058;2023-07-13T10:39:18;101300.55;;;24.68;51.33
56070;BME280;41944;52.078;-0.058;2023-07-13T10:41:49;101299.90;;;24.81;51.90
56070;BME280;41944;52.078;-0.058;2023-07-13T10:44:22;101295.69;;;24.86;52.38
56070;BME280;41944;52.078;-0.058;2023-07-13T10:46:51;101299.40;;;24.96;51.14
56070;BME280;41944;52.078;-0.058;2023-07-13T10:49:19;101301.78;;;25.01;51.70
56070;BME280;41944;52.078;-0.058;2023-07-13T10:51:47;101308.20;;;25.27;51.48
56070;BME280;41944;52.078;-0.058;2023-07-13T10:54:18;101307.63;;;25.29;51.95
56070;BME280;41944;52.078;-0.058;2023-07-13T10:56:45;101307.35;;;25.33;50.08
56070;BME280;41944;52.078;-0.058;2023-07-13T10:59:15;101303.37;;;25.29;50.25
56070;BME280;41944;52.078;-0.058;2023-07-13T11:01:55;101305.93;;;25.51;50.82
56070;BME280;41944;52.078;-0.058;2023-07-13T11:04:25;101305.85;;;25.59;50.48
56070;BME280;41944;52.078;-0.058;2023-07-13T11:06:56;101298.67;;;25.65;50.61
56070;BME280;41944;52.078;-0.058;2023-07-13T11:09:35;101292.72;;;25.81;50.77
56070;BME280;41944;52.078;-0.058;2023-07-13T11:12:07;101300.56;;;25.76;50.94
56070;BME280;41944;52.078;-0.058;2023-07-13T11:14:37;101304.27;;;25.81;50.44
56070;BME280;41944;52.078;-0.058;2023-07-13T11:18:20;101305.30;;;25.88;48.47
56070;BME280;41944;52.078;-0.058;2023-07-13T11:20:49;101311.61;;;25.85;47.27
56070;BME280;41944;52.078;-0.058;2023-07-13T11:23:20;101307.59;;;26.00;45.77
56070;BME280;41944;52.078;-0.058;2023-07-13T11:25:53;101308.90;;;25.91;47.95
56070;BME280;41944;52.078;-0.058;2023-07-13T11:28:23;101307.36;;;25.98;47.60
56070;BME280;41944;52.078;-0.058;2023-07-13T11:31:02;101306.05;;;25.93;48.00
56070;BME280;41944;52.078;-0.058;2023-07-13T11:33:48;101312.73;;;25.98;48.46
56070;BME280;41944;52.078;-0.058;2023-07-13T11:36:18;101313.43;;;25.93;48.40
56070;BME280;41944;52.078;-0.058;2023-07-13T11:38:48;101326.06;;;25.62;49.87
56070;BME280;41944;52.078;-0.058;2023-07-13T11:41:19;101327.19;;;25.25;53.63
56070;BME280;41944;52.078;-0.058;2023-07-13T11:43:50;101323.20;;;25.06;55.71
56070;BME280;41944;52.078;-0.058;2023-07-13T11:46:20;101326.97;;;24.99;56.52
56070;BME280;41944;52.078;-0.058;2023-07-13T11:48:49;101322.00;;;24.82;60.23
56070;BME280;41944;52.078;-0.058;2023-07-13T11:51:21;101320.60;;;24.94;60.06
56070;BME280;41944;52.078;-0.058;2023-07-13T11:53:50;101319.15;;;24.92;57.88
56070;BME280;41944;52.078;-0.058;2023-07-13T11:56:18;101321.23;;;25.01;57.78
56070;BME280;41944;52.078;-0.058;2023-07-13T11:58:48;101316.16;;;25.13;56.78
56070;BME280;41944;52.078;-0.058;2023-07-13T12:01:22;101318.93;;;25.34;56.56
56070;BME280;41944;52.078;-0.058;2023-07-13T12:03:49;101318.32;;;25.43;52.89
56070;BME280;41944;52.078;-0.058;2023-07-13T12:06:27;101326.18;;;25.52;53.63
56070;BME280;41944;52.078;-0.058;2023-07-13T12:08:57;101321.91;;;25.30;52.88
56070;BME280;41944;52.078;-0.058;2023-07-13T12:11:25;101320.00;;;25.24;53.30
56070;BME280;41944;52.078;-0.058;2023-07-13T12:13:52;101321.18;;;25.12;54.02
56070;BME280;41944;52.078;-0.058;2023-07-13T12:16:26;101315.67;;;25.07;54.08
56070;BME280;41944;52.078;-0.058;2023-07-13T12:18:55;101321.25;;;25.08;55.13
56070;BME280;41944;52.078;-0.058;2023-07-13T12:21:29;101317.03;;;25.16;54.61
56070;BME280;41944;52.078;-0.058;2023-07-13T12:23:57;101314.42;;;25.25;54.93
56070;BME280;41944;52.078;-0.058;2023-07-13T12:26:24;101313.80;;;25.25;55.85
56070;BME280;41944;52.078;-0.058;2023-07-13T12:28:54;101308.58;;;25.31;54.81
56070;BME280;41944;52.078;-0.058;2023-07-13T12:31:29;101310.13;;;25.30;53.36
56070;BME280;41944;52.078;-0.058;2023-07-13T12:33:59;101306.88;;;25.18;52.29
56070;BME280;41944;52.078;-0.058;2023-07-13T12:36:31;101303.41;;;25.23;52.24
56070;BME280;41944;52.078;-0.058;2023-07-13T12:39:02;101302.59;;;25.25;51.75
56070;BME280;41944;52.078;-0.058;2023-07-13T12:41:32;101299.34;;;25.18;53.44
56070;BME280;41944;52.078;-0.058;2023-07-13T12:44:00;101296.83;;;25.18;53.46
56070;BME280;41944;52.078;-0.058;2023-07-13T12:46:27;101293.92;;;25.33;54.03
56070;BME280;41944;52.078;-0.058;2023-07-13T12:48:57;101294.28;;;25.49;53.62